createdAt,value
2022-12-06T00:01:26.581Z,12.10
2022-12-06T00:03:58.930Z,14.85
2022-12-06T00:06:28.271Z,15.52
2022-12-06T00:08:56.703Z,13.02
2022-12-06T00:11:29.995Z,12.32
2022-12-06T00:13:59.613Z,15.00
2022-12-06T00:16:27.476Z,12.50
2022-12-06T00:18:54.684Z,10.38
2022-12-06T00:21:30.494Z,11.82
2022-12-06T00:24:00.760Z,13.35
2022-12-06T00:26:28.887Z,12.88
2022-12-06T00:28:58.207Z,11.60
2022-12-06T00:31:27.020Z,12.10
2022-12-06T00:33:54.554Z,12.82
2022-12-06T00:36:41.215Z,10.18
2022-12-06T00:39:10.462Z,12.68
2022-12-06T00:41:37.529Z,10.80
2022-12-06T00:44:04.673Z,12.10
2022-12-06T00:46:32.670Z,12.38
2022-12-06T00:49:01.185Z,11.18
2022-12-06T00:51:29.742Z,8.65
2022-12-06T00:53:57.053Z,13.00
2022-12-06T00:56:23.883Z,11.98
2022-12-06T00:58:50.955Z,14.15
2022-12-06T01:01:21.433Z,13.10
2022-12-06T01:03:51.974Z,10.65
2022-12-06T01:06:22.958Z,9.30
2022-12-06T01:08:50.301Z,10.77
2022-12-06T01:11:17.631Z,13.68
2022-12-06T01:13:44.521Z,10.75
2022-12-06T01:16:23.752Z,9.77
2022-12-06T01:18:56.099Z,8.35
2022-12-06T01:21:23.496Z,9.68
2022-12-06T01:23:50.766Z,8.95
2022-12-06T01:26:24.145Z,9.55
2022-12-06T01:28:51.062Z,6.97
2022-12-06T01:31:18.390Z,9.95
2022-12-06T01:33:45.257Z,10.85
2022-12-06T01:36:24.905Z,9.23
2022-12-06T01:38:53.575Z,9.85
2022-12-06T01:41:22.227Z,11.60
2022-12-06T01:43:50.470Z,8.20
2022-12-06T01:46:32.327Z,9.35
2022-12-06T01:49:15.125Z,7.47
2022-12-06T01:51:45.789Z,9.23
2022-12-06T01:54:16.009Z,7.57
2022-12-06T01:56:43.215Z,9.07
2022-12-06T01:59:11.433Z,13.23
2022-12-06T02:01:40.268Z,11.68
2022-12-06T02:04:08.703Z,10.32
2022-12-06T02:06:35.526Z,9.25
2022-12-06T02:09:06.059Z,8.35
2022-12-06T02:11:35.471Z,8.15
2022-12-06T02:14:05.611Z,9.75
2022-12-06T02:17:03.811Z,11.07
2022-12-06T02:19:55.033Z,10.02
2022-12-06T02:22:34.460Z,6.88
2022-12-06T02:25:19.967Z,7.60
2022-12-06T02:27:58.713Z,9.15
2022-12-06T02:30:43.707Z,7.18
2022-12-06T02:33:27.495Z,9.48
2022-12-06T02:36:03.735Z,8.45
2022-12-06T02:38:39.050Z,8.40
2022-12-06T02:41:16.913Z,9.88
2022-12-06T02:43:50.669Z,10.35
2022-12-06T02:46:21.303Z,9.88
2022-12-06T02:48:50.735Z,8.73
2022-12-06T02:51:19.690Z,7.40
2022-12-06T02:53:49.948Z,8.25
2022-12-06T02:56:18.476Z,7.80
2022-12-06T02:58:45.283Z,7.63
2022-12-06T03:01:25.601Z,10.25
2022-12-06T03:04:02.677Z,9.10
2022-12-06T03:06:52.661Z,9.23
2022-12-06T03:09:26.515Z,9.70
2022-12-06T03:11:56.579Z,7.05
2022-12-06T03:14:26.579Z,8.77
2022-12-06T03:17:33.249Z,9.77
2022-12-06T03:20:08.246Z,9.52
2022-12-06T03:22:40.193Z,8.10
2022-12-06T03:25:09.321Z,7.97
2022-12-06T03:27:36.682Z,7.05
2022-12-06T03:30:08.258Z,8.45
2022-12-06T03:32:38.374Z,9.68
2022-12-06T03:35:09.075Z,7.35
2022-12-06T03:37:39.944Z,7.95
2022-12-06T03:40:16.705Z,9.73
2022-12-06T03:42:43.816Z,10.10
2022-12-06T03:45:12.246Z,7.38
2022-12-06T03:48:05.793Z,8.38
2022-12-06T03:50:40.268Z,9.20
2022-12-06T03:53:07.219Z,9.02
2022-12-06T03:55:33.930Z,7.75
2022-12-06T04:00:27.643Z,5.28
2022-12-06T04:02:54.342Z,8.10
2022-12-06T04:05:21.395Z,7.80
2022-12-06T04:07:48.420Z,6.57
2022-12-06T04:10:15.289Z,7.65
2022-12-06T04:13:00.496Z,8.55
2022-12-06T04:15:36.699Z,11.90
2022-12-06T04:18:15.763Z,7.72
2022-12-06T04:21:07.233Z,6.70
2022-12-06T04:23:39.678Z,7.47
2022-12-06T04:26:09.402Z,7.32
2022-12-06T04:28:54.929Z,7.72
2022-12-06T04:31:41.094Z,6.60
2022-12-06T04:34:26.664Z,8.07
2022-12-06T04:37:12.005Z,9.43
2022-12-06T04:39:38.828Z,7.05
2022-12-06T04:42:24.795Z,8.15
2022-12-06T04:44:51.642Z,7.43
2022-12-06T04:47:18.910Z,8.43
2022-12-06T04:49:45.638Z,8.93
2022-12-06T04:52:12.847Z,7.78
2022-12-06T04:54:40.570Z,7.00
2022-12-06T04:57:11.015Z,6.93
2022-12-06T04:59:39.986Z,7.65
2022-12-06T05:02:07.943Z,6.72
2022-12-06T05:04:34.792Z,8.18
2022-12-06T05:07:01.865Z,5.72
2022-12-06T05:09:28.724Z,7.57
2022-12-06T05:11:55.904Z,6.57
2022-12-06T05:14:22.697Z,7.60
2022-12-06T05:16:49.623Z,6.88
2022-12-06T05:19:16.499Z,14.98
2022-12-06T05:21:43.342Z,5.72
2022-12-06T05:24:10.203Z,6.45
2022-12-06T05:26:37.057Z,5.63
2022-12-06T05:29:04.398Z,6.40
2022-12-06T05:31:31.120Z,6.15
2022-12-06T05:33:57.971Z,6.50
2022-12-06T05:36:26.747Z,5.90
2022-12-06T05:38:54.131Z,7.50
2022-12-06T05:41:22.933Z,7.30
2022-12-06T05:43:49.895Z,11.35
2022-12-06T05:46:17.036Z,7.65
2022-12-06T05:48:44.693Z,6.53
2022-12-06T05:51:11.864Z,5.65
2022-12-06T05:53:39.141Z,6.38
2022-12-06T05:56:09.123Z,5.63
2022-12-06T05:58:36.834Z,5.32
2022-12-06T06:01:04.719Z,6.10
2022-12-06T06:03:31.641Z,4.88
2022-12-06T06:06:00.831Z,5.38
2022-12-06T06:08:28.715Z,8.20
2022-12-06T06:10:56.439Z,5.82
2022-12-06T06:13:23.757Z,5.63
2022-12-06T06:15:50.610Z,5.50
2022-12-06T06:18:18.648Z,7.13
2022-12-06T06:20:53.113Z,5.40
2022-12-06T06:23:21.015Z,8.93
2022-12-06T06:25:48.467Z,5.40
2022-12-06T06:28:15.254Z,5.90
2022-12-06T06:30:42.122Z,6.07
2022-12-06T06:33:09.768Z,6.28
2022-12-06T06:35:37.747Z,7.97
2022-12-06T06:38:04.748Z,6.47
2022-12-06T06:40:31.931Z,6.10
2022-12-06T06:43:17.825Z,5.28
2022-12-06T06:45:56.050Z,5.03
2022-12-06T06:48:24.910Z,7.15
2022-12-06T06:50:56.901Z,8.68
2022-12-06T06:53:26.278Z,8.68
2022-12-06T06:55:54.283Z,7.75
2022-12-06T06:58:21.476Z,6.05
2022-12-06T07:00:56.838Z,5.57
2022-12-06T07:03:24.780Z,8.50
2022-12-06T07:05:53.506Z,7.40
2022-12-06T07:08:20.680Z,7.28
2022-12-06T07:10:48.798Z,10.25
2022-12-06T07:13:17.094Z,9.07
2022-12-06T07:15:44.231Z,5.20
2022-12-06T07:18:10.985Z,8.13
2022-12-06T07:20:37.813Z,7.00
2022-12-06T07:23:05.016Z,6.80
2022-12-06T07:25:34.469Z,8.43
2022-12-06T07:28:01.354Z,9.07
2022-12-06T07:30:28.448Z,7.28
2022-12-06T07:32:55.253Z,9.00
2022-12-06T07:35:22.159Z,9.27
2022-12-06T07:37:48.991Z,11.05
2022-12-06T07:40:16.866Z,9.73
2022-12-06T07:43:02.768Z,11.23
2022-12-06T07:45:29.738Z,9.18
2022-12-06T07:47:56.496Z,8.50
2022-12-06T07:50:24.205Z,8.82
2022-12-06T07:52:51.218Z,9.82
2022-12-06T07:55:18.457Z,10.25
2022-12-06T07:57:45.328Z,9.98
2022-12-06T08:00:15.655Z,9.25
2022-12-06T08:02:42.708Z,12.63
2022-12-06T08:05:09.590Z,10.85
2022-12-06T08:07:36.359Z,10.85
2022-12-06T08:12:32.263Z,11.10
2022-12-06T08:14:59.942Z,13.50
2022-12-06T08:17:27.549Z,11.60
2022-12-06T08:19:54.418Z,12.40
2022-12-06T08:22:21.253Z,10.27
2022-12-06T08:27:15.157Z,11.88
2022-12-06T08:29:45.033Z,11.90
2022-12-06T08:32:12.067Z,21.15
2022-12-06T08:34:38.881Z,12.43
2022-12-06T08:37:05.731Z,8.07
2022-12-06T16:20:13.132Z,29.98
2022-12-06T16:22:58.405Z,30.67
2022-12-06T16:25:25.048Z,40.20
2022-12-06T16:27:51.701Z,43.13
2022-12-06T16:30:34.085Z,71.25
2022-12-06T16:33:05.936Z,71.65
2022-12-06T16:35:34.862Z,57.75
2022-12-06T16:38:01.493Z,46.70
2022-12-06T16:40:28.863Z,38.60
2022-12-06T16:42:55.571Z,47.35
2022-12-06T16:45:22.233Z,37.97
2022-12-06T16:50:25.226Z,39.05
2022-12-06T16:52:52.565Z,38.13
2022-12-06T16:55:19.709Z,45.63
2022-12-06T16:57:46.778Z,46.30
2022-12-06T17:00:14.356Z,37.97
2022-12-06T17:02:41.184Z,57.85
2022-12-06T17:07:35.965Z,49.80
2022-12-06T17:10:03.213Z,53.17
2022-12-06T17:12:30.069Z,44.28
2022-12-06T17:17:26.030Z,49.33
2022-12-06T17:19:52.694Z,52.70
2022-12-06T17:24:46.404Z,54.83
2022-12-06T17:27:14.654Z,70.88
2022-12-06T17:29:43.322Z,76.22
2022-12-06T17:32:10.566Z,75.05
2022-12-06T17:34:38.020Z,80.88
2022-12-06T17:37:06.009Z,78.88
2022-12-06T17:39:32.777Z,66.40
2022-12-06T17:42:18.148Z,64.43
2022-12-06T17:44:45.877Z,61.53
2022-12-06T17:47:12.556Z,63.30
2022-12-06T17:52:06.154Z,75.25
2022-12-06T17:54:32.813Z,61.00
2022-12-06T17:59:30.100Z,54.70
2022-12-06T18:02:17.095Z,51.20
2022-12-06T18:04:45.032Z,52.33
2022-12-06T18:07:13.120Z,53.13
2022-12-06T18:09:40.109Z,46.97
2022-12-06T18:12:09.191Z,55.22
2022-12-06T18:15:38.375Z,47.35
2022-12-06T18:18:05.943Z,50.72
2022-12-06T18:20:32.728Z,49.05
2022-12-06T18:25:25.987Z,46.28
2022-12-06T18:30:19.621Z,48.70
2022-12-06T18:32:46.371Z,44.10
2022-12-06T18:37:39.916Z,46.00
2022-12-06T18:42:34.185Z,46.35
2022-12-06T18:45:01.150Z,46.08
2022-12-06T18:47:27.903Z,40.58
2022-12-06T18:49:56.386Z,42.35
2022-12-06T18:52:23.152Z,42.10
2022-12-06T18:57:16.445Z,40.15
2022-12-06T19:02:10.817Z,48.72
2022-12-06T19:04:37.618Z,51.45
2022-12-06T19:07:04.352Z,53.40
2022-12-06T19:11:57.725Z,47.10
2022-12-06T19:16:51.832Z,43.08
2022-12-06T19:19:22.519Z,45.67
2022-12-06T19:21:50.149Z,47.88
2022-12-06T19:24:20.733Z,46.65
2022-12-06T19:26:48.862Z,40.50
2022-12-06T19:29:16.250Z,43.10
2022-12-06T19:31:43.716Z,36.53
2022-12-06T19:34:22.287Z,38.45
2022-12-06T19:36:50.916Z,40.17
2022-12-06T19:39:18.566Z,45.95
2022-12-06T19:42:04.105Z,42.45
2022-12-06T19:44:30.967Z,34.58
2022-12-06T19:46:58.198Z,33.05
2022-12-06T19:49:26.363Z,37.22
2022-12-06T19:51:53.216Z,36.00
2022-12-06T19:54:31.384Z,35.53
2022-12-06T19:57:00.481Z,37.60
2022-12-06T19:59:30.318Z,33.33
2022-12-06T20:02:00.000Z,37.67
2022-12-06T20:04:35.653Z,36.83
2022-12-06T20:07:03.840Z,31.13
2022-12-06T20:09:31.429Z,37.20
2022-12-06T20:12:03.930Z,31.70
2022-12-06T20:14:43.937Z,32.00
2022-12-06T20:17:16.760Z,29.00
2022-12-06T20:19:46.016Z,31.90
2022-12-06T20:22:14.277Z,29.73
2022-12-06T20:24:40.946Z,36.20
2022-12-06T20:29:34.422Z,32.60
2022-12-06T20:34:33.916Z,34.38
2022-12-06T20:37:03.552Z,28.38
2022-12-06T20:39:32.825Z,31.83
2022-12-06T20:42:00.034Z,31.65
2022-12-06T20:44:26.789Z,29.73
2022-12-06T20:49:21.055Z,41.10
2022-12-06T20:54:20.485Z,36.83
2022-12-06T20:56:50.721Z,36.65
2022-12-06T20:59:17.492Z,35.60
2022-12-06T21:04:13.457Z,34.20
2022-12-06T21:06:40.928Z,32.10
2022-12-06T21:09:07.662Z,36.60
2022-12-06T21:14:00.987Z,33.80
2022-12-06T21:19:02.482Z,41.80
2022-12-06T21:21:38.078Z,38.45
2022-12-06T21:24:10.812Z,35.95
2022-12-06T21:26:37.747Z,36.30
2022-12-06T21:29:05.008Z,31.38
2022-12-06T21:31:37.244Z,35.10
2022-12-06T21:34:04.372Z,34.45
2022-12-06T21:36:32.052Z,38.80
2022-12-06T21:38:59.063Z,32.35
2022-12-06T21:41:26.695Z,37.03
2022-12-06T21:43:53.556Z,40.97
2022-12-06T21:46:22.977Z,55.25
2022-12-06T21:48:51.796Z,64.10
2022-12-06T21:51:19.006Z,59.38
2022-12-06T21:53:45.718Z,57.08
2022-12-06T21:58:41.667Z,50.75
2022-12-06T22:03:50.190Z,33.95
2022-12-06T22:06:17.398Z,35.47
2022-12-06T22:08:45.121Z,40.15
2022-12-06T22:11:17.445Z,35.78
2022-12-06T22:13:44.867Z,43.72
2022-12-06T22:16:13.376Z,48.60
2022-12-06T22:18:45.466Z,58.55
2022-12-06T22:21:20.956Z,49.90
2022-12-06T22:23:48.575Z,58.80
2022-12-06T22:26:18.579Z,57.50
2022-12-06T22:28:46.266Z,67.60
2022-12-06T22:31:25.419Z,81.25
2022-12-06T22:33:53.355Z,74.90
2022-12-06T22:36:21.340Z,65.30
2022-12-06T22:38:49.864Z,64.20
2022-12-06T22:41:17.167Z,61.58
2022-12-06T22:43:44.329Z,65.22
2022-12-06T22:46:13.625Z,66.85
2022-12-06T22:48:40.871Z,59.15
2022-12-06T22:51:22.428Z,68.70
2022-12-06T22:53:54.360Z,66.53
2022-12-06T22:56:21.866Z,84.68
2022-12-06T22:58:48.725Z,71.10
2022-12-06T23:01:18.079Z,70.80
2022-12-06T23:03:46.490Z,69.85
2022-12-06T23:06:14.354Z,74.53
2022-12-06T23:08:41.542Z,72.80
2022-12-06T23:11:19.959Z,67.60
2022-12-06T23:13:46.692Z,72.80
2022-12-06T23:18:42.301Z,75.78
2022-12-06T23:21:19.289Z,65.15
2022-12-06T23:23:48.386Z,69.68
2022-12-06T23:26:21.326Z,71.57
2022-12-06T23:28:48.468Z,75.90
2022-12-06T23:31:16.448Z,72.35
2022-12-06T23:33:44.532Z,82.57
2022-12-06T23:36:13.245Z,88.97
2022-12-06T23:38:41.265Z,81.50
2022-12-06T23:41:14.166Z,83.50
2022-12-06T23:43:41.250Z,78.28
2022-12-06T23:46:11.289Z,89.28
2022-12-06T23:48:38.345Z,93.22
2022-12-06T23:51:11.600Z,86.72
2022-12-06T23:53:39.339Z,85.30
2022-12-06T23:56:17.780Z,92.13
2022-12-06T23:58:45.757Z,88.47
